sensor_id;sensor_type;location;lat;lon;timestamp;P1;durP1;ratioP1;P2;durP2;ratioP2
11823;SDS011;5969;50.780;7.726;2023-01-01T11:30:17;5.72;;;1.70;;
11823;SDS011;5969;50.780;7.726;2023-01-01T11:32:46;4.10;;;1.63;;
11823;SDS011;5969;50.780;7.726;2023-01-01T11:35:17;3.90;;;1.92;;
11823;SDS011;5969;50.780;7.726;2023-01-01T11:37:47;4.97;;;1.83;;
11823;SDS011;5969;50.780;7.726;2023-01-01T11:40:17;6.60;;;2.10;;
11823;SDS011;5969;50.780;7.726;2023-01-01T11:42:48;3.55;;;2.10;;
11823;SDS011;5969;50.780;7.726;2023-01-01T11:45:18;2.92;;;1.60;;
11823;SDS011;5969;50.780;7.726;2023-01-01T11:47:49;5.43;;;1.92;;
11823;SDS011;5969;50.780;7.726;2023-01-01T11:50:22;2.83;;;1.63;;
11823;SDS011;5969;50.780;7.726;2023-01-01T11:52:54;4.15;;;1.80;;
11823;SDS011;5969;50.780;7.726;2023-01-01T11:55:28;3.47;;;2.05;;
11823;SDS011;5969;50.780;7.726;2023-01-01T11:58:07;5.35;;;2.08;;
11823;SDS011;5969;50.780;7.726;2023-01-01T12:00:40;5.90;;;2.10;;
11823;SDS011;5969;50.780;7.726;2023-01-01T12:03:11;4.88;;;2.03;;
11823;SDS011;5969;50.780;7.726;2023-01-01T12:05:47;4.20;;;1.98;;
11823;SDS011;5969;50.780;7.726;2023-01-01T12:08:19;3.72;;;1.88;;
11823;SDS011;5969;50.780;7.726;2023-01-01T12:10:53;5.05;;;2.05;;
11823;SDS011;5969;50.780;7.726;2023-01-01T12:13:25;3.08;;;1.77;;
11823;SDS011;5969;50.780;7.726;2023-01-01T12:15:56;4.80;;;2.22;;
11823;SDS011;5969;50.780;7.726;2023-01-01T12:18:33;3.72;;;1.73;;
11823;SDS011;5969;50.780;7.726;2023-01-01T12:21:05;5.28;;;2.42;;
11823;SDS011;5969;50.780;7.726;2023-01-01T12:23:43;4.68;;;2.38;;
11823;SDS011;5969;50.780;7.726;2023-01-01T12:26:15;8.38;;;2.28;;
11823;SDS011;5969;50.780;7.726;2023-01-01T12:29:01;6.40;;;2.42;;
11823;SDS011;5969;50.780;7.726;2023-01-01T12:31:56;3.45;;;1.75;;
11823;SDS011;5969;50.780;7.726;2023-01-01T12:34:30;5.07;;;2.25;;
11823;SDS011;5969;50.780;7.726;2023-01-01T12:37:03;6.03;;;2.25;;
11823;SDS011;5969;50.780;7.726;2023-01-01T12:42:41;3.40;;;1.90;;
11823;SDS011;5969;50.780;7.726;2023-01-01T12:45:23;5.45;;;2.40;;
11823;SDS011;5969;50.780;7.726;2023-01-01T12:47:59;5.28;;;2.00;;
11823;SDS011;5969;50.780;7.726;2023-01-01T12:50:34;5.53;;;2.20;;
11823;SDS011;5969;50.780;7.726;2023-01-01T12:53:09;4.47;;;1.77;;
11823;SDS011;5969;50.780;7.726;2023-01-01T12:55:58;6.00;;;2.25;;
11823;SDS011;5969;50.780;7.726;2023-01-01T12:58:35;6.25;;;1.88;;
11823;SDS011;5969;50.780;7.726;2023-01-01T13:01:07;6.15;;;2.00;;
11823;SDS011;5969;50.780;7.726;2023-01-01T13:03:42;4.65;;;1.92;;
11823;SDS011;5969;50.780;7.726;2023-01-01T13:06:15;2.95;;;1.92;;
11823;SDS011;5969;50.780;7.726;2023-01-01T13:08:46;2.95;;;1.83;;
11823;SDS011;5969;50.780;7.726;2023-01-01T13:11:19;4.60;;;2.10;;
11823;SDS011;5969;50.780;7.726;2023-01-01T13:13:47;4.60;;;1.88;;
11823;SDS011;5969;50.780;7.726;2023-01-01T13:16:17;3.50;;;1.98;;
11823;SDS011;5969;50.780;7.726;2023-01-01T13:18:58;4.90;;;2.47;;
11823;SDS011;5969;50.780;7.726;2023-01-01T13:21:25;4.78;;;2.00;;
11823;SDS011;5969;50.780;7.726;2023-01-01T13:24:03;5.07;;;2.13;;
11823;SDS011;5969;50.780;7.726;2023-01-01T13:26:44;6.65;;;1.83;;
11823;SDS011;5969;50.780;7.726;2023-01-01T13:29:32;5.25;;;2.30;;
11823;SDS011;5969;50.780;7.726;2023-01-01T13:32:08;2.58;;;1.88;;
11823;SDS011;5969;50.780;7.726;2023-01-01T13:37:41;2.75;;;2.00;;
11823;SDS011;5969;50.780;7.726;2023-01-01T13:46:02;4.03;;;2.10;;
11823;SDS011;5969;50.780;7.726;2023-01-01T13:51:55;6.75;;;2.40;;
11823;SDS011;5969;50.780;7.726;2023-01-01T13:55:03;4.97;;;2.50;;
11823;SDS011;5969;50.780;7.726;2023-01-01T13:58:48;8.13;;;2.58;;
11823;SDS011;5969;50.780;7.726;2023-01-01T14:01:54;6.38;;;2.17;;
11823;SDS011;5969;50.780;7.726;2023-01-01T14:04:35;5.93;;;2.15;;
11823;SDS011;5969;50.780;7.726;2023-01-01T14:10:14;9.30;;;3.05;;
11823;SDS011;5969;50.780;7.726;2023-01-01T14:12:48;5.88;;;2.42;;
11823;SDS011;5969;50.780;7.726;2023-01-01T14:15:21;6.13;;;2.25;;
11823;SDS011;5969;50.780;7.726;2023-01-01T14:17:53;5.18;;;2.42;;
11823;SDS011;5969;50.780;7.726;2023-01-01T14:20:26;4.35;;;2.22;;
11823;SDS011;5969;50.780;7.726;2023-01-01T14:22:58;4.35;;;2.00;;
11823;SDS011;5969;50.780;7.726;2023-01-01T14:25:30;5.00;;;2.30;;
11823;SDS011;5969;50.780;7.726;2023-01-01T14:27:57;3.53;;;2.35;;
11823;SDS011;5969;50.780;7.726;2023-01-01T14:30:25;6.30;;;2.67;;
11823;SDS011;5969;50.780;7.726;2023-01-01T14:32:54;5.50;;;2.30;;
11823;SDS011;5969;50.780;7.726;2023-01-01T14:38:28;4.57;;;2.15;;
11823;SDS011;5969;50.780;7.726;2023-01-01T14:41:00;4.03;;;2.20;;
11823;SDS011;5969;50.780;7.726;2023-01-01T14:43:35;3.17;;;2.33;;
11823;SDS011;5969;50.780;7.726;2023-01-01T14:46:03;5.97;;;2.35;;
11823;SDS011;5969;50.780;7.726;2023-01-01T14:48:32;5.65;;;2.38;;
11823;SDS011;5969;50.780;7.726;2023-01-01T14:51:09;4.55;;;2.10;;
11823;SDS011;5969;50.780;7.726;2023-01-01T14:53:52;7.13;;;2.47;;
11823;SDS011;5969;50.780;7.726;2023-01-01T14:56:26;3.85;;;2.08;;
11823;SDS011;5969;50.780;7.726;2023-01-01T14:59:02;5.13;;;2.22;;
11823;SDS011;5969;50.780;7.726;2023-01-01T15:01:32;4.47;;;2.10;;
11823;SDS011;5969;50.780;7.726;2023-01-01T15:04:12;2.58;;;2.25;;
11823;SDS011;5969;50.780;7.726;2023-01-01T15:06:51;5.68;;;2.53;;
11823;SDS011;5969;50.780;7.726;2023-01-01T15:09:19;8.25;;;2.80;;
11823;SDS011;5969;50.780;7.726;2023-01-01T15:11:45;6.40;;;2.60;;
11823;SDS011;5969;50.780;7.726;2023-01-01T15:14:28;9.50;;;2.40;;
11823;SDS011;5969;50.780;7.726;2023-01-01T15:17:46;7.50;;;2.42;;
11823;SDS011;5969;50.780;7.726;2023-01-01T15:20:19;3.53;;;2.33;;
11823;SDS011;5969;50.780;7.726;2023-01-01T15:22:48;6.95;;;2.65;;
11823;SDS011;5969;50.780;7.726;2023-01-01T15:25:16;5.90;;;2.50;;
11823;SDS011;5969;50.780;7.726;2023-01-01T15:27:55;4.25;;;2.20;;
11823;SDS011;5969;50.780;7.726;2023-01-01T15:30:50;4.80;;;2.22;;
11823;SDS011;5969;50.780;7.726;2023-01-01T15:33:18;7.25;;;2.22;;
11823;SDS011;5969;50.780;7.726;2023-01-01T15:35:47;5.93;;;2.13;;
11823;SDS011;5969;50.780;7.726;2023-01-01T15:38:17;5.25;;;2.63;;
11823;SDS011;5969;50.780;7.726;2023-01-01T15:40:47;5.93;;;2.38;;
11823;SDS011;5969;50.780;7.726;2023-01-01T15:43:22;5.03;;;2.20;;
11823;SDS011;5969;50.780;7.726;2023-01-01T15:45:51;5.50;;;2.33;;
11823;SDS011;5969;50.780;7.726;2023-01-01T15:48:22;5.85;;;2.20;;
11823;SDS011;5969;50.780;7.726;2023-01-01T15:51:03;5.55;;;2.33;;
11823;SDS011;5969;50.780;7.726;2023-01-01T15:53:44;5.28;;;2.58;;
11823;SDS011;5969;50.780;7.726;2023-01-01T15:56:14;9.57;;;2.50;;
11823;SDS011;5969;50.780;7.726;2023-01-01T15:58:42;3.97;;;2.40;;
11823;SDS011;5969;50.780;7.726;2023-01-01T16:01:24;9.60;;;2.72;;
11823;SDS011;5969;50.780;7.726;2023-01-01T16:03:59;4.93;;;2.15;;
11823;SDS011;5969;50.780;7.726;2023-01-01T16:06:40;5.40;;;2.75;;
11823;SDS011;5969;50.780;7.726;2023-01-01T16:09:12;6.07;;;2.88;;
11823;SDS011;5969;50.780;7.726;2023-01-01T16:11:53;6.53;;;2.20;;
11823;SDS011;5969;50.780;7.726;2023-01-01T16:14:25;5.28;;;2.50;;
11823;SDS011;5969;50.780;7.726;2023-01-01T16:16:53;6.05;;;2.97;;
11823;SDS011;5969;50.780;7.726;2023-01-01T16:19:24;7.13;;;2.63;;
11823;SDS011;5969;50.780;7.726;2023-01-01T16:21:52;5.47;;;2.38;;
11823;SDS011;5969;50.780;7.726;2023-01-01T16:24:20;6.18;;;2.60;;
11823;SDS011;5969;50.780;7.726;2023-01-01T16:26:48;5.05;;;2.25;;
11823;SDS011;5969;50.780;7.726;2023-01-01T16:29:15;7.43;;;2.85;;
11823;SDS011;5969;50.780;7.726;2023-01-01T16:31:42;6.90;;;2.40;;
11823;SDS011;5969;50.780;7.726;2023-01-01T16:34:12;6.78;;;2.40;;
11823;SDS011;5969;50.780;7.726;2023-01-01T16:36:40;6.00;;;2.97;;
11823;SDS011;5969;50.780;7.726;2023-01-01T16:39:09;6.22;;;3.22;;
11823;SDS011;5969;50.780;7.726;2023-01-01T16:41:39;3.20;;;2.38;;
11823;SDS011;5969;50.780;7.726;2023-01-01T16:44:08;5.63;;;2.53;;
11823;SDS011;5969;50.780;7.726;2023-01-01T16:46:36;5.35;;;3.25;;
11823;SDS011;5969;50.780;7.726;2023-01-01T16:49:03;4.15;;;3.00;;
11823;SDS011;5969;50.780;7.726;2023-01-01T16:51:30;5.82;;;3.25;;
11823;SDS011;5969;50.780;7.726;2023-01-01T16:53:57;5.00;;;3.00;;
11823;SDS011;5969;50.780;7.726;2023-01-01T16:56:25;4.70;;;2.88;;
11823;SDS011;5969;50.780;7.726;2023-01-01T16:58:54;6.57;;;3.40;;
11823;SDS011;5969;50.780;7.726;2023-01-01T17:01:21;6.78;;;3.80;;
11823;SDS011;5969;50.780;7.726;2023-01-01T17:03:50;6.47;;;4.00;;
11823;SDS011;5969;50.780;7.726;2023-01-01T17:06:17;5.75;;;4.43;;
11823;SDS011;5969;50.780;7.726;2023-01-01T17:08:47;6.97;;;3.92;;
11823;SDS011;5969;50.780;7.726;2023-01-01T17:11:14;7.53;;;4.57;;
11823;SDS011;5969;50.780;7.726;2023-01-01T17:13:42;7.45;;;3.28;;
11823;SDS011;5969;50.780;7.726;2023-01-01T17:16:17;8.65;;;3.50;;
11823;SDS011;5969;50.780;7.726;2023-01-01T17:18:47;7.60;;;3.45;;
11823;SDS011;5969;50.780;7.726;2023-01-01T17:21:16;8.93;;;3.85;;
11823;SDS011;5969;50.780;7.726;2023-01-01T17:23:43;5.10;;;3.53;;
11823;SDS011;5969;50.780;7.726;2023-01-01T17:26:11;5.28;;;3.92;;
11823;SDS011;5969;50.780;7.726;2023-01-01T17:28:46;6.55;;;3.92;;
11823;SDS011;5969;50.780;7.726;2023-01-01T17:31:15;5.97;;;4.25;;
11823;SDS011;5969;50.780;7.726;2023-01-01T17:33:49;7.25;;;4.22;;
11823;SDS011;5969;50.780;7.726;2023-01-01T17:36:16;7.40;;;4.00;;
11823;SDS011;5969;50.780;7.726;2023-01-01T17:38:43;5.32;;;3.20;;
11823;SDS011;5969;50.780;7.726;2023-01-01T17:41:11;6.25;;;3.83;;
11823;SDS011;5969;50.780;7.726;2023-01-01T17:43:40;6.50;;;3.50;;
11823;SDS011;5969;50.780;7.726;2023-01-01T17:46:09;7.32;;;3.53;;
11823;SDS011;5969;50.780;7.726;2023-01-01T17:48:38;10.13;;;3.45;;
11823;SDS011;5969;50.780;7.726;2023-01-01T17:51:07;7.88;;;3.22;;
11823;SDS011;5969;50.780;7.726;2023-01-01T17:53:34;7.18;;;3.08;;
11823;SDS011;5969;50.780;7.726;2023-01-01T17:56:03;7.57;;;3.30;;
11823;SDS011;5969;50.780;7.726;2023-01-01T17:58:31;7.53;;;3.47;;
11823;SDS011;5969;50.780;7.726;2023-01-01T18:01:10;5.43;;;4.03;;
11823;SDS011;5969;50.780;7.726;2023-01-01T18:03:52;7.82;;;4.13;;
11823;SDS011;5969;50.780;7.726;2023-01-01T18:06:22;5.07;;;3.70;;
11823;SDS011;5969;50.780;7.726;2023-01-01T18:08:52;6.45;;;4.57;;
11823;SDS011;5969;50.780;7.726;2023-01-01T18:11:20;9.88;;;4.85;;
11823;SDS011;5969;50.780;7.726;2023-01-01T18:13:47;8.23;;;4.38;;
11823;SDS011;5969;50.780;7.726;2023-01-01T18:16:14;7.80;;;3.92;;
11823;SDS011;5969;50.780;7.726;2023-01-01T18:18:44;7.78;;;3.72;;
11823;SDS011;5969;50.780;7.726;2023-01-01T18:21:11;11.10;;;7.05;;
11823;SDS011;5969;50.780;7.726;2023-01-01T18:23:44;12.32;;;7.13;;
11823;SDS011;5969;50.780;7.726;2023-01-01T18:26:12;8.07;;;4.57;;
11823;SDS011;5969;50.780;7.726;2023-01-01T18:28:39;16.02;;;10.82;;
11823;SDS011;5969;50.780;7.726;2023-01-01T18:31:06;15.25;;;8.77;;
11823;SDS011;5969;50.780;7.726;2023-01-01T18:33:35;13.65;;;8.43;;
11823;SDS011;5969;50.780;7.726;2023-01-01T18:36:03;8.60;;;7.03;;
11823;SDS011;5969;50.780;7.726;2023-01-01T18:38:30;12.95;;;7.25;;
11823;SDS011;5969;50.780;7.726;2023-01-01T18:41:08;9.48;;;5.85;;
11823;SDS011;5969;50.780;7.726;2023-01-01T18:43:50;9.10;;;6.25;;
11823;SDS011;5969;50.780;7.726;2023-01-01T18:46:17;8.48;;;4.88;;
11823;SDS011;5969;50.780;7.726;2023-01-01T18:48:46;7.55;;;5.15;;
11823;SDS011;5969;50.780;7.726;2023-01-01T18:51:21;7.95;;;4.53;;
11823;SDS011;5969;50.780;7.726;2023-01-01T18:53:49;7.05;;;3.47;;
11823;SDS011;5969;50.780;7.726;2023-01-01T18:56:21;5.63;;;4.00;;
11823;SDS011;5969;50.780;7.726;2023-01-01T18:58:48;7.70;;;4.55;;
11823;SDS011;5969;50.780;7.726;2023-01-01T19:01:21;7.32;;;5.00;;
11823;SDS011;5969;50.780;7.726;2023-01-01T19:03:49;9.68;;;5.05;;
11823;SDS011;5969;50.780;7.726;2023-01-01T19:06:23;8.30;;;6.05;;
11823;SDS011;5969;50.780;7.726;2023-01-01T19:08:51;12.48;;;6.45;;
11823;SDS011;5969;50.780;7.726;2023-01-01T19:11:28;14.73;;;7.25;;
11823;SDS011;5969;50.780;7.726;2023-01-01T19:13:58;14.90;;;7.20;;
11823;SDS011;5969;50.780;7.726;2023-01-01T19:16:31;10.05;;;5.65;;
11823;SDS011;5969;50.780;7.726;2023-01-01T19:19:00;9.85;;;6.10;;
11823;SDS011;5969;50.780;7.726;2023-01-01T19:21:35;8.80;;;6.07;;
11823;SDS011;5969;50.780;7.726;2023-01-01T19:24:06;9.57;;;6.68;;
11823;SDS011;5969;50.780;7.726;2023-01-01T19:26:41;8.85;;;7.05;;
11823;SDS011;5969;50.780;7.726;2023-01-01T19:29:11;11.23;;;7.45;;
11823;SDS011;5969;50.780;7.726;2023-01-01T19:31:40;9.30;;;6.03;;
11823;SDS011;5969;50.780;7.726;2023-01-01T19:34:07;9.38;;;5.53;;
11823;SDS011;5969;50.780;7.726;2023-01-01T19:36:35;8.60;;;5.18;;
11823;SDS011;5969;50.780;7.726;2023-01-01T19:39:02;8.45;;;5.07;;
11823;SDS011;5969;50.780;7.726;2023-01-01T19:41:29;10.40;;;5.13;;
11823;SDS011;5969;50.780;7.726;2023-01-01T19:43:58;8.27;;;5.38;;
11823;SDS011;5969;50.780;7.726;2023-01-01T19:46:25;9.02;;;5.28;;
11823;SDS011;5969;50.780;7.726;2023-01-01T19:48:51;8.85;;;4.55;;
11823;SDS011;5969;50.780;7.726;2023-01-01T19:51:18;10.10;;;4.35;;
11823;SDS011;5969;50.780;7.726;2023-01-01T19:53:46;9.48;;;4.60;;
11823;SDS011;5969;50.780;7.726;2023-01-01T19:56:13;9.07;;;4.50;;
11823;SDS011;5969;50.780;7.726;2023-01-01T19:58:42;7.28;;;5.05;;
11823;SDS011;5969;50.780;7.726;2023-01-01T20:01:10;8.82;;;3.90;;
11823;SDS011;5969;50.780;7.726;2023-01-01T20:03:37;6.20;;;3.40;;
11823;SDS011;5969;50.780;7.726;2023-01-01T20:06:05;9.63;;;3.85;;
11823;SDS011;5969;50.780;7.726;2023-01-01T20:08:33;9.75;;;3.65;;
11823;SDS011;5969;50.780;7.726;2023-01-01T20:11:02;10.57;;;3.10;;
11823;SDS011;5969;50.780;7.726;2023-01-01T20:13:29;9.65;;;3.60;;
11823;SDS011;5969;50.780;7.726;2023-01-01T20:16:06;7.60;;;3.25;;
11823;SDS011;5969;50.780;7.726;2023-01-01T20:18:34;10.93;;;4.15;;
11823;SDS011;5969;50.780;7.726;2023-01-01T20:21:01;10.25;;;3.30;;
11823;SDS011;5969;50.780;7.726;2023-01-01T20:23:45;7.15;;;3.28;;
11823;SDS011;5969;50.780;7.726;2023-01-01T20:26:12;7.60;;;3.10;;
11823;SDS011;5969;50.780;7.726;2023-01-01T20:28:40;5.68;;;3.05;;
11823;SDS011;5969;50.780;7.726;2023-01-01T20:31:24;6.57;;;3.22;;
11823;SDS011;5969;50.780;7.726;2023-01-01T20:33:52;6.65;;;3.55;;
11823;SDS011;5969;50.780;7.726;2023-01-01T20:36:19;6.82;;;3.20;;
11823;SDS011;5969;50.780;7.726;2023-01-01T20:39:03;9.52;;;5.80;;
11823;SDS011;5969;50.780;7.726;2023-01-01T20:41:30;9.80;;;6.25;;
11823;SDS011;5969;50.780;7.726;2023-01-01T20:43:57;8.23;;;5.72;;
11823;SDS011;5969;50.780;7.726;2023-01-01T20:46:25;11.45;;;5.45;;
11823;SDS011;5969;50.780;7.726;2023-01-01T20:48:55;12.20;;;4.85;;
11823;SDS011;5969;50.780;7.726;2023-01-01T20:51:23;9.32;;;4.65;;
11823;SDS011;5969;50.780;7.726;2023-01-01T20:53:49;9.00;;;4.50;;
11823;SDS011;5969;50.780;7.726;2023-01-01T20:56:16;13.00;;;4.00;;
11823;SDS011;5969;50.780;7.726;2023-01-01T20:58:43;8.15;;;3.65;;
11823;SDS011;5969;50.780;7.726;2023-01-01T21:01:11;6.53;;;3.33;;
11823;SDS011;5969;50.780;7.726;2023-01-01T21:03:38;7.28;;;3.40;;
11823;SDS011;5969;50.780;7.726;2023-01-01T21:06:06;9.98;;;3.33;;
11823;SDS011;5969;50.780;7.726;2023-01-01T21:08:33;7.63;;;3.40;;
11823;SDS011;5969;50.780;7.726;2023-01-01T21:11:00;7.57;;;3.60;;
11823;SDS011;5969;50.780;7.726;2023-01-01T21:13:28;11.55;;;3.65;;
11823;SDS011;5969;50.780;7.726;2023-01-01T21:15:55;11.52;;;3.35;;
11823;SDS011;5969;50.780;7.726;2023-01-01T21:18:31;9.80;;;3.10;;
11823;SDS011;5969;50.780;7.726;2023-01-01T21:20:59;6.65;;;2.75;;
11823;SDS011;5969;50.780;7.726;2023-01-01T21:23:27;11.27;;;3.00;;
11823;SDS011;5969;50.780;7.726;2023-01-01T21:25:56;15.05;;;3.00;;
11823;SDS011;5969;50.780;7.726;2023-01-01T21:28:22;7.50;;;3.08;;
11823;SDS011;5969;50.780;7.726;2023-01-01T21:30:54;9.23;;;2.97;;
11823;SDS011;5969;50.780;7.726;2023-01-01T21:36:01;4.25;;;2.40;;
11823;SDS011;5969;50.780;7.726;2023-01-01T21:38:38;9.90;;;3.22;;
11823;SDS011;5969;50.780;7.726;2023-01-01T21:41:14;7.53;;;2.70;;
11823;SDS011;5969;50.780;7.726;2023-01-01T21:43:45;5.72;;;2.50;;
11823;SDS011;5969;50.780;7.726;2023-01-01T21:46:27;10.00;;;3.03;;
11823;SDS011;5969;50.780;7.726;2023-01-01T21:48:59;10.40;;;2.90;;
11823;SDS011;5969;50.780;7.726;2023-01-01T21:51:30;9.90;;;2.65;;
11823;SDS011;5969;50.780;7.726;2023-01-01T21:54:16;4.93;;;2.22;;
11823;SDS011;5969;50.780;7.726;2023-01-01T21:56:48;11.77;;;2.72;;
11823;SDS011;5969;50.780;7.726;2023-01-01T21:59:22;5.53;;;2.22;;
11823;SDS011;5969;50.780;7.726;2023-01-01T22:01:59;7.57;;;2.80;;
11823;SDS011;5969;50.780;7.726;2023-01-01T22:04:55;6.32;;;3.10;;
11823;SDS011;5969;50.780;7.726;2023-01-01T22:07:24;10.57;;;2.72;;
11823;SDS011;5969;50.780;7.726;2023-01-01T22:09:55;5.53;;;2.83;;
11823;SDS011;5969;50.780;7.726;2023-01-01T22:12:25;6.43;;;2.97;;
11823;SDS011;5969;50.780;7.726;2023-01-01T22:14:55;8.75;;;2.67;;
11823;SDS011;5969;50.780;7.726;2023-01-01T22:17:25;10.98;;;3.17;;
11823;SDS011;5969;50.780;7.726;2023-01-01T22:19:53;6.32;;;2.67;;
11823;SDS011;5969;50.780;7.726;2023-01-01T22:22:32;8.00;;;2.72;;
11823;SDS011;5969;50.780;7.726;2023-01-01T22:25:02;11.60;;;2.88;;
11823;SDS011;5969;50.780;7.726;2023-01-01T22:27:49;6.75;;;3.08;;
11823;SDS011;5969;50.780;7.726;2023-01-01T22:30:34;10.70;;;3.10;;
11823;SDS011;5969;50.780;7.726;2023-01-01T22:33:08;8.55;;;2.88;;
11823;SDS011;5969;50.780;7.726;2023-01-01T22:35:39;8.48;;;2.95;;
11823;SDS011;5969;50.780;7.726;2023-01-01T22:38:06;10.32;;;2.83;;
11823;SDS011;5969;50.780;7.726;2023-01-01T22:40:37;6.70;;;2.42;;
11823;SDS011;5969;50.780;7.726;2023-01-01T22:43:05;8.68;;;2.67;;
11823;SDS011;5969;50.780;7.726;2023-01-01T22:45:38;7.10;;;3.00;;
11823;SDS011;5969;50.780;7.726;2023-01-01T22:48:09;9.85;;;3.30;;
11823;SDS011;5969;50.780;7.726;2023-01-01T22:50:44;8.52;;;2.90;;
11823;SDS011;5969;50.780;7.726;2023-01-01T22:53:11;7.05;;;2.83;;
11823;SDS011;5969;50.780;7.726;2023-01-01T22:55:39;8.98;;;3.03;;
11823;SDS011;5969;50.780;7.726;2023-01-01T22:58:06;6.45;;;2.42;;
11823;SDS011;5969;50.780;7.726;2023-01-01T23:00:33;5.88;;;2.85;;
11823;SDS011;5969;50.780;7.726;2023-01-01T23:03:02;7.47;;;2.30;;
11823;SDS011;5969;50.780;7.726;2023-01-01T23:05:29;9.55;;;2.70;;
11823;SDS011;5969;50.780;7.726;2023-01-01T23:07:56;10.05;;;2.70;;
11823;SDS011;5969;50.780;7.726;2023-01-01T23:10:23;8.15;;;2.85;;
11823;SDS011;5969;50.780;7.726;2023-01-01T23:12:52;8.88;;;2.83;;
11823;SDS011;5969;50.780;7.726;2023-01-01T23:15:18;8.07;;;2.72;;
11823;SDS011;5969;50.780;7.726;2023-01-01T23:18:03;6.85;;;2.40;;
11823;SDS011;5969;50.780;7.726;2023-01-01T23:20:29;8.18;;;2.72;;
11823;SDS011;5969;50.780;7.726;2023-01-01T23:22:56;4.60;;;2.15;;
11823;SDS011;5969;50.780;7.726;2023-01-01T23:25:23;5.40;;;3.08;;
11823;SDS011;5969;50.780;7.726;2023-01-01T23:27:53;6.25;;;2.63;;
11823;SDS011;5969;50.780;7.726;2023-01-01T23:30:21;7.80;;;2.55;;
11823;SDS011;5969;50.780;7.726;2023-01-01T23:32:48;10.00;;;2.53;;
11823;SDS011;5969;50.780;7.726;2023-01-01T23:35:15;6.47;;;2.55;;
11823;SDS011;5969;50.780;7.726;2023-01-01T23:37:42;6.45;;;2.63;;
11823;SDS011;5969;50.780;7.726;2023-01-01T23:40:09;7.65;;;3.20;;
11823;SDS011;5969;50.780;7.726;2023-01-01T23:42:37;7.35;;;2.83;;
11823;SDS011;5969;50.780;7.726;2023-01-01T23:45:06;7.03;;;2.65;;
11823;SDS011;5969;50.780;7.726;2023-01-01T23:47:33;7.20;;;2.28;;
11823;SDS011;5969;50.780;7.726;2023-01-01T23:50:00;4.90;;;2.20;;
11823;SDS011;5969;50.780;7.726;2023-01-01T23:52:32;7.97;;;2.95;;
11823;SDS011;5969;50.780;7.726;2023-01-01T23:54:59;8.10;;;2.50;;
11823;SDS011;5969;50.780;7.726;2023-01-01T23:57:26;8.30;;;2.55;;
11823;SDS011;5969;50.780;7.726;2023-01-01T23:59:53;6.85;;;2.50;;
